Carson Sink, Nevada Weather observations

Data are for observation ending at time listed.
 Day   Time    Ave.   Ave.  Ave.  Vector   Max.   Stn.    Total    Solar   Ave.  
  of    of     Air    Rel.  Wind   Wind    Wind   Baro.  Precip.   Rad.    Soil  
Year   Day     Temp.  Hum.  Speed  Dir.    Gust   Pres.                    Temp. 
2015   (PST)    F      %     mph   deg.    mph     mb.     in.     W/m2     F   
------------------------------------------------------------------------------
  24    1:30   18.5    60    5.0   359      6.0   897.4    0.00       0     35.7
  24    1:40   18.4    58    4.2    22      5.1   897.3    0.00       0     35.6
  24    1:50   17.3    59    5.5    57      6.8   897.4    0.00       0     35.5
  24    2:00   17.5    60    5.6    75      6.9   897.2    0.00       0     35.3
  24    2:10   17.4    61    4.7    68      5.9   897.4    0.00       0     35.2
  24    2:20   17.0    62    4.5    64      5.8   897.5    0.00       0     35.1
  24    2:30   16.4    62    3.8    88      5.1   897.5    0.00       0     35.0
  24    2:40   17.0    62    4.0    84      5.3   897.5    0.00       0     34.9
  24    2:50   17.7    63    4.9    56      6.0   897.6    0.00       0     34.8
  24    3:00   18.1    63    5.1    58      6.2   897.5    0.00       0     34.6
  24    3:10   18.3    64    5.2    67      6.4   897.5    0.00       0     34.5
  24    3:20   19.3    64    5.3    53      6.3   897.3    0.00       0     34.4
  24    3:30   18.5    63    4.6    51      6.0   897.0    0.00       0     34.3
  24    3:40   18.3    64    4.8    31      5.4   896.9    0.00       0     34.2
  24    3:50   17.8    63    3.2    44      4.0   896.8    0.00       0     34.1
  24    4:00   17.5    64    3.9     1      5.1   896.8    0.00       0     34.0
  24    4:10   18.6    64    4.1     5      5.4   896.5    0.00       0     33.9
  24    4:20   17.3    63    2.6   356      4.2   896.3    0.00       0     33.8
  24    4:30   16.8    64    5.4   343      6.4   896.3    0.00       0     33.7
  24    4:40   16.7    65    4.6   352      6.5   896.4    0.00       0     33.6
  24    4:50   16.9    65    1.7    28      3.3   896.2    0.00       0     33.5
  24    5:00   16.4    64    4.8   105      7.2   896.2    0.00       0     33.4
  24    5:10   17.0    66    4.7    64      5.6   896.3    0.00       0     33.3
  24    5:20   17.2    66    5.0    26      6.5   896.5    0.00       0     33.2
  24    5:30   17.1    66    5.3    30      6.4   896.8    0.00       0     33.1
  24    5:40   17.3    66    3.7    44      4.7   896.8    0.00       0     33.0
  24    5:50   17.3    66    3.3    84      4.6   896.8    0.00       0     32.9
  24    6:00   17.2    66    1.9   114      3.4   897.0    0.00       0     32.9
  24    6:10   17.6    67    0.2    50      0.9   897.2    0.00       0     32.8
  24    6:20   17.9    67    1.4   142      3.4   897.3    0.00       0     32.7
  24    6:30   18.0    66    4.2   132      5.6   897.4    0.00       0     32.6
  24    6:40   18.0    67    4.1   135      5.6   897.6    0.00       0     32.5
  24    6:50   19.6    68    3.8   130      5.6   897.8    0.00       0     32.5
  24    7:00   19.7    67    3.4   183      4.6   897.8    0.00       1     32.4
  24    7:10   19.3    66    3.7   233      4.2   897.9    0.00       3     32.3
  24    7:20   18.0    66    4.8   286      6.1   898.0    0.00       5     32.2
  24    7:30   16.8    69    1.9   300      4.8   897.8    0.00       9     32.2
  24    7:40   20.3    67    1.2   164      2.5   897.6    0.00      47     32.1
  24    7:50   17.4    64    2.3   234      3.2   897.5    0.00      79     32.0
  24    8:00   18.4    64    2.9   227      3.9   897.5    0.00     110     32.0
  24    8:10   17.6    62    3.5   266      4.5   897.5    0.00     138     31.9
  24    8:20   17.4    62    3.9   272      5.0   897.5    0.00     163     31.9
  24    8:30   19.6    62    2.8   296      4.1   897.4    0.00     187     31.8
  24    8:40   22.3    61    1.2   308      2.0   897.5    0.00     212     31.8
  24    8:50   24.5    61    2.2    13      4.5   897.5    0.00     239     31.8
  24    9:00   25.3    60    3.8    80      5.0   897.4    0.00     263     31.8
  24    9:10   25.7    58    3.6   122      4.8   897.3    0.00     285     31.8
  24    9:20   26.2    58    4.0   108      5.3   897.2    0.00     308     31.9
  24    9:30   27.1    56    3.3   112      5.0   897.2    0.00     330     31.9
  24    9:40   28.1    54    2.3   141      4.5   897.4    0.00     350     32.0
  24    9:50   29.5    54    0.9   161      3.4   897.5    0.00     371     32.1
  24   10:00   31.5    54    1.2   175      4.1   897.4    0.00     390     32.3
  24   10:10   32.4    53    1.3   214      2.4   897.4    0.00     408     32.5
  24   10:20   33.5    53    0.9   289      2.3   897.5    0.00     424     32.6
  24   10:30   33.5    51    2.4   349      5.3   897.8    0.00     438     32.9
  24   10:40   34.5    51    3.3    51      5.5   897.8    0.00     455     33.1
  24   10:50   36.1    49    5.8    71      9.0   897.8    0.00     466     33.3
  24   11:00   37.2    47    6.7    90      9.1   897.7    0.00     475     33.6
  24   11:10   38.2    44    7.9   123     10.7   897.6    0.00     482     33.8
  24   11:20   39.0    42    8.6   138     11.1   897.4    0.00     489     34.1
  24   11:30   40.0    39    9.7   147     12.3   897.1    0.00     494     34.4
  24   11:40   41.3    38    8.4   163     12.0   896.9    0.00     498     34.7
  24   11:50   42.3    36    6.3   176      9.1   896.8    0.00     501     35.1
  24   12:00   43.1    35    5.5   193      8.8   896.8    0.00     503     35.4
  24   12:10   43.5    34    4.5   209      7.1   896.8    0.00     503     35.7
  24   12:20   43.5    34    4.5   233      7.0   896.7    0.00     503     36.1
  24   12:30   43.8    34    3.9   220      5.9   896.5    0.00     498     36.4
  24   12:40   44.3    33    3.0   280      5.7   896.4    0.00     495     36.8
  24   12:50   45.4    32    3.2   227      5.6   896.2    0.00     487     37.1
  24   13:00   46.0    31    3.1   228      5.8   896.1    0.00     478     37.5
  24   13:10   45.8    31    2.4   216      5.5   896.0    0.00     468     37.9
  24   13:20   47.1    30    1.8   168      3.9   895.8    0.00     457     38.2
  24   13:30   47.0    30    2.9   205      5.8   895.6    0.00     444     38.6
  24   13:40   46.7    31    2.7   224      5.8   895.4    0.00     431     39.0
  24   13:50   48.2    30    2.8   180      6.2   895.2    0.00     414     39.3
  24   14:00   48.7    29    2.4   214      4.8   895.0    0.00     398     39.7
  24   14:10   49.3    28    2.5   193      5.5   894.8    0.00     380     40.0
  24   14:20   49.2    28    2.3   138      4.0   894.7    0.00     362     40.4
  24   14:30   49.1    28    2.5   237      6.1   894.8    0.00     343     40.7
  24   14:40   48.9    29    2.8   301      6.3   894.6    0.00     324     41.0
  24   14:50   48.9    29    2.9   313      5.8   894.6    0.00     302     41.3
  24   15:00   49.3    29    2.3   307      3.7   894.5    0.00     280     41.6
  24   15:10   49.5    29    1.6     9      3.4   894.4    0.00     253     41.9
  24   15:20   50.6    29    0.5    78      2.9   894.5    0.00     230     42.1
  24   15:30   50.9    28    1.6    78      3.4   894.4    0.00     207     42.4
  24   15:40   50.2    29    1.6    39      3.2   894.3    0.00     182     42.6
  24   15:50   50.3    29    2.1    71      4.3   894.3    0.00     159     42.8
  24   16:00   50.6    29    1.6   121      4.1   894.4    0.00     134     42.9
  24   16:10   50.0    29    3.2   143      4.5   894.2    0.00     101     43.1
  24   16:20   49.8    29    4.3   162      6.2   894.1    0.00      70     43.2
  24   16:30   50.1    29    3.4   179      5.8   894.1    0.00      43     43.3
  24   16:40   50.0    29    2.2   166      3.4   894.1    0.00      23     43.3
  24   16:50   49.2    30    2.6   164      3.4   894.1    0.00      12     43.4
  24   17:00   48.2    31    2.7   171      3.9   894.2    0.00       8     43.4
  24   17:10   46.8    32    3.0   175      4.2   894.2    0.00       4     43.4
  24   17:20   44.9    34    2.2   166      3.4   894.2    0.00       1     43.4
  24   17:30   44.3    35    1.4   179      2.8   894.4    0.00       0     43.4
  24   17:40   43.9    36    1.8   163      2.2   894.4    0.00       0     43.3
  24   17:50   43.5    36    2.4   178      3.3   894.4    0.00       0     43.2
  24   18:00   43.1    37    2.3   179      3.2   894.6    0.00       0     43.1
  24   18:10   42.4    38    2.3   178      3.7   894.6    0.00       0     43.0
  24   18:20   41.7    39    2.7   156      3.5   894.7    0.00       0     42.9
  24   18:30   40.8    41    1.0   130      2.3   894.7    0.00       0     42.8
  24   18:40   40.1    42    0.0     0      0.0   894.7    0.00       0     42.6
  24   18:50   38.7    43    1.1    15      3.6   894.8    0.00       0     42.5
  24   19:00   37.2    45    2.8     8      4.3   894.9    0.00       0     42.4
  24   19:10   35.6    46    3.2    11      3.8   894.9    0.00       0     42.2
  24   19:20   34.2    47    3.8    36      4.8   894.8    0.00       0     42.1
  24   19:30   33.2    48    2.6    64      4.5   894.8    0.00       0     41.9
  24   19:40   34.4    49    2.7    66      3.0   894.7    0.00       0     41.8
  24   19:50   35.4    48    2.5    53      2.9   894.6    0.00       0     41.6
  24   20:00   35.2    48    3.0    48      4.1   894.6    0.00       0     41.5
  24   20:10   32.2    47    4.0    16      4.9   894.6    0.00       0     41.3
  24   20:20   30.6    50    4.4     9      5.1   894.7    0.00       0     41.1
  24   20:30   29.8    50    4.7   350      5.4   894.9    0.00       0     41.0
  24   20:40   28.6    52    3.5   345      4.6   894.9    0.00       0     40.8
  24   20:50   28.9    52    2.0    30      3.4   894.9    0.00       0     40.7
  24   21:00   30.0    51    3.5    47      4.3   894.9    0.00       0     40.6
  24   21:10   29.6    49    4.4    69      5.0   895.0    0.00       0     40.4
  24   21:20   28.1    51    3.9    86      5.3   895.0    0.00       0     40.2
  24   21:30   27.6    52    5.0    64      5.7   895.0    0.00       0     40.1
  24   21:40   27.5    53    4.5    43      5.4   895.1    0.00       0     40.0
  24   21:50   27.5    53    4.8    50      5.8   895.0    0.00       0     39.8
  24   22:00   27.5    54    6.2    36      6.9   895.0    0.00       0     39.7
  24   22:10   27.7    54    4.7    31      5.8   895.0    0.00       0     39.5
  24   22:20   27.3    54    4.8    36      5.7   894.9    0.00       0     39.4
  24   22:30   27.4    54    4.3     8      5.6   895.0    0.00       0     39.3
  24   22:40   26.1    54    4.8   353      5.6   895.1    0.00       0     39.1
  24   22:50   25.9    55    4.8   349      5.8   895.2    0.00       0     39.0
  24   23:00   26.9    55    5.3     9      6.3   895.3    0.00       0     38.8
  24   23:10   27.8    56    5.5    21      7.0   895.2    0.00       0     38.7
  24   23:20   27.9    56    5.4    26      7.0   895.1    0.00       0     38.6
  24   23:30   27.7    56    5.2    40      6.4   895.1    0.00       0     38.5
  24   23:40   25.7    56    3.7    66      4.9   895.0    0.00       0     38.4
  24   23:50   25.1    57    4.4    57      5.0   895.0    0.00       0     38.2
  25    0:00   24.6    57    2.4   124      4.4   895.0    0.00       0     38.1
  25    0:10   25.6    58    2.8   133      4.7   895.0    0.00       0     38.0
  25    0:20   26.5    57    2.7   124      3.4   895.0    0.00       0     37.9
  25    0:30   26.0    56    1.8   130      3.4   894.9    0.00       0     37.8
  25    0:40   26.5    58    2.2    62      3.8   895.0    0.00       0     37.7
  25    0:50   24.8    56    3.7   231      5.8   895.1    0.00       0     37.5
  25    1:00   23.2    57    4.6   261      5.8   895.0    0.00       0     37.4
  25    1:10   24.4    59    3.1   270      4.2   895.0    0.00       0     37.3
  25    1:20   26.6    60    0.4   280      2.0   895.1    0.00       0     37.2

Return to Carson Sink graphs page.


Western Regional Climate Center,wrcc@dri.edu